TAF LFPT
METAR LFPT
LFPT 270800Z AUTO 24011KT 9999 BKN008/// BKN012/// BKN031/// ///TCU 02/01 Q0986=
LFPT 270730Z AUTO 23011KT 5000 -SN BR OVC007/// ///TCU 01/00 Q0986=
LFPT 270700Z AUTO 22013KT 9999 OVC008/// ///TCU 02/01 Q0986=
LFPT 270630Z AUTO 23011KT 9999 -SN BKN010/// OVC018/// ///TCU 02/01 Q0986=
LFPT 270600Z AUTO 22014KT 9999 -RA BKN017/// BKN022/// ///TCU 02/01 Q0986=
WC LFPT
WS LFPT
WV LFPT